Time;durP1;ratioP1;P1;durP2;ratioP2;P2;SDS_P1;SDS_P2;PMS_P1;PMS_P2;Temp;Humidity;BMP_temperature;BMP_pressure;BME280_temperature;BME280_humidity;BME280_pressure;Samples;Min_cycle;Max_cycle;Signal;HPM_P1;HPM_P2
2022/07/21 00:00:23;;;;;;;22.90;9.77;;;26.90;49.40;;;;;;5054848;28;20067;-79
2022/07/21 00:02:49;;;;;;;34.65;11.25;;;26.90;49.80;;;;;;5054939;28;20029;-78
2022/07/21 00:05:16;;;;;;;14.25;8.98;;;26.70;49.90;;;;;;5054611;28;20465;-78
2022/07/21 00:07:42;;;;;;;23.25;9.65;;;26.60;50.20;;;;;;5055210;28;20028;-78
2022/07/21 00:10:09;;;;;;;23.90;10.55;;;26.50;50.30;;;;;;5054311;28;20029;-78
2022/07/21 00:12:34;;;;;;;26.00;9.77;;;26.40;50.40;;;;;;5054372;28;20041;-78
2022/07/21 00:15:00;;;;;;;16.42;10.07;;;26.30;50.50;;;;;;5054309;28;20107;-77
2022/07/21 00:17:25;;;;;;;22.10;10.32;;;26.20;50.60;;;;;;5054576;28;20145;-78
2022/07/21 00:19:51;;;;;;;25.48;10.73;;;26.10;50.80;;;;;;5054746;28;20025;-78
2022/07/21 00:22:17;;;;;;;19.63;9.95;;;26.00;51.00;;;;;;5054581;28;20114;-78
2022/07/21 00:24:42;;;;;;;24.10;10.93;;;26.00;50.70;;;;;;5055022;28;20025;-78
2022/07/21 00:27:08;;;;;;;19.60;10.20;;;26.00;50.40;;;;;;5054034;28;20037;-78
2022/07/21 00:29:33;;;;;;;21.50;10.63;;;25.90;50.70;;;;;;5054387;28;20033;-78
2022/07/21 00:32:00;;;;;;;21.80;10.75;;;25.90;50.70;;;;;;5054462;28;20112;-78
2022/07/21 00:34:26;;;;;;;23.33;11.38;;;25.80;50.70;;;;;;5054066;28;20375;-78
2022/07/21 00:36:51;;;;;;;18.60;11.63;;;25.70;50.70;;;;;;5054369;28;20520;-78
2022/07/21 00:39:17;;;;;;;20.25;10.85;;;25.60;50.60;;;;;;5054034;28;20060;-78
2022/07/21 00:41:42;;;;;;;21.40;11.80;;;25.50;50.90;;;;;;5054353;28;20083;-77
2022/07/21 00:44:20;;;;;;;24.98;11.05;;;25.50;51.10;;;;;;5052760;28;20032;-78
2022/07/21 00:46:45;;;;;;;20.05;11.50;;;25.40;51.50;;;;;;5053016;28;20025;-78
2022/07/21 00:49:11;;;;;;;20.33;11.30;;;25.40;51.90;;;;;;5054239;28;20348;-78
2022/07/21 00:51:36;;;;;;;18.65;11.07;;;25.30;51.90;;;;;;5053779;28;20032;-78
2022/07/21 00:54:02;;;;;;;21.23;11.20;;;25.20;52.30;;;;;;5053842;28;20071;-77
2022/07/21 00:56:28;;;;;;;20.42;11.15;;;25.20;52.30;;;;;;5053401;28;20029;-78
2022/07/21 00:58:54;;;;;;;16.23;10.95;;;25.10;52.20;;;;;;5069941;28;20468;-78
2022/07/21 01:01:19;;;;;;;21.80;11.63;;;25.00;51.90;;;;;;5073688;28;20060;-78
2022/07/21 01:03:45;;;;;;;19.23;10.18;;;24.90;52.10;;;;;;5073346;28;20388;-78
2022/07/21 01:06:10;;;;;;;18.80;10.93;;;24.90;51.90;;;;;;5073741;28;20025;-78
2022/07/21 01:08:36;;;;;;;19.45;10.23;;;24.90;52.00;;;;;;5073515;28;20536;-78
2022/07/21 01:11:02;;;;;;;23.05;11.70;;;24.90;51.70;;;;;;5073001;28;20571;-78
2022/07/21 01:13:29;;;;;;;15.38;9.45;;;24.90;51.70;;;;;;5073330;28;20052;-78
2022/07/21 01:15:55;;;;;;;16.40;10.50;;;24.90;51.90;;;;;;5055584;28;20083;-78
2022/07/21 01:18:21;;;;;;;21.15;10.73;;;24.80;52.10;;;;;;5053367;28;20071;-78
2022/07/21 01:20:52;;;;;;;18.38;10.02;;;24.80;51.80;;;;;;5053205;28;20075;-78
2022/07/21 01:23:19;;;;;;;15.10;10.05;;;24.80;51.90;;;;;;5051677;28;20024;-78
2022/07/21 01:25:49;;;;;;;23.40;11.32;;;24.80;52.00;;;;;;5053352;28;20033;-78
2022/07/21 01:28:16;;;;;;;22.30;9.93;;;24.80;52.20;;;;;;5053274;28;20029;-78
2022/07/21 01:30:42;;;;;;;12.00;8.77;;;24.80;52.20;;;;;;5073128;28;20035;-78
2022/07/21 01:33:07;;;;;;;16.50;9.10;;;24.70;52.30;;;;;;5072298;28;20024;-78
2022/07/21 01:35:33;;;;;;;15.60;8.57;;;24.80;52.50;;;;;;5072776;28;20028;-78
2022/07/21 01:38:00;;;;;;;17.35;8.50;;;24.80;52.60;;;;;;5071735;28;20024;-78
2022/07/21 01:43:10;;;;;;;12.35;7.95;;;24.80;53.20;;;;;;5072969;28;20043;-78
2022/07/21 01:45:35;;;;;;;19.35;9.10;;;24.80;53.30;;;;;;5072770;28;20028;-78
2022/07/21 01:48:01;;;;;;;11.02;8.15;;;24.80;53.50;;;;;;5070726;28;20068;-78
2022/07/21 01:50:27;;;;;;;17.48;7.63;;;24.90;53.70;;;;;;5072719;28;20120;-79
2022/07/21 01:52:57;;;;;;;15.00;7.88;;;24.90;53.80;;;;;;5073081;28;20092;-78
2022/07/21 01:55:23;;;;;;;14.32;7.35;;;24.80;54.20;;;;;;5072450;28;20029;-77
2022/07/21 01:57:49;;;;;;;12.75;6.78;;;24.80;54.50;;;;;;5064675;28;20023;-78
2022/07/21 02:00:15;;;;;;;14.45;6.78;;;24.80;54.80;;;;;;5052856;28;20532;-78
2022/07/21 02:02:40;;;;;;;9.27;6.82;;;24.90;55.00;;;;;;5052633;28;20039;-78
2022/07/21 02:05:06;;;;;;;11.30;6.10;;;24.90;55.30;;;;;;5053120;28;20044;-78
2022/07/21 02:07:32;;;;;;;11.75;6.60;;;24.90;55.50;;;;;;5052708;28;20033;-78
2022/07/21 02:09:57;;;;;;;11.38;6.32;;;24.90;55.70;;;;;;5051468;28;20025;-78
2022/07/21 02:12:23;;;;;;;9.50;6.07;;;24.90;55.90;;;;;;5051809;28;20048;-78
2022/07/21 02:14:49;;;;;;;9.68;6.50;;;24.90;56.10;;;;;;5052269;28;20527;-78
2022/07/21 02:17:14;;;;;;;16.08;5.90;;;24.90;56.50;;;;;;5052303;28;20045;-78
2022/07/21 02:19:41;;;;;;;10.75;5.85;;;25.00;56.80;;;;;;5052433;28;20025;-78
2022/07/21 02:22:06;;;;;;;12.55;5.68;;;25.00;57.20;;;;;;5054780;28;20415;-78
2022/07/21 02:24:32;;;;;;;8.57;5.75;;;25.00;57.30;;;;;;5072387;28;20023;-78
2022/07/21 02:26:57;;;;;;;11.82;5.32;;;25.00;57.70;;;;;;5071964;28;20025;-78
2022/07/21 02:29:23;;;;;;;8.30;5.45;;;25.00;57.80;;;;;;5072556;28;20024;-78
2022/07/21 02:31:48;;;;;;;10.68;5.10;;;25.00;58.30;;;;;;5072479;28;20350;-78
2022/07/21 02:34:14;;;;;;;8.80;4.88;;;25.00;59.40;;;;;;5075767;28;20115;-78
2022/07/21 02:36:40;;;;;;;6.90;5.35;;;25.00;59.30;;;;;;5076329;28;20518;-78
2022/07/21 02:39:07;;;;;;;13.25;4.30;;;25.00;59.50;;;;;;5075667;28;20099;-78
2022/07/21 02:41:33;;;;;;;14.95;5.30;;;25.00;60.00;;;;;;5076013;28;20117;-78
2022/07/21 02:43:58;;;;;;;12.77;5.40;;;25.00;61.20;;;;;;5066565;28;20082;-78
2022/07/21 02:46:24;;;;;;;9.10;4.80;;;25.00;62.20;;;;;;5068528;28;20448;-78
2022/07/21 02:48:49;;;;;;;11.40;5.03;;;24.90;63.00;;;;;;5076217;28;20105;-78
2022/07/21 02:51:15;;;;;;;7.43;4.88;;;24.90;64.00;;;;;;5056273;28;20033;-78
2022/07/21 02:53:40;;;;;;;6.45;4.82;;;24.90;65.30;;;;;;5055871;28;20025;-78
2022/07/21 02:56:06;;;;;;;9.48;4.15;;;24.90;66.40;;;;;;5056135;28;20052;-78
2022/07/21 02:58:32;;;;;;;5.07;3.60;;;24.90;67.80;;;;;;5054756;28;20028;-78
2022/07/21 03:00:58;;;;;;;8.48;3.95;;;24.80;69.50;;;;;;5056170;28;20029;-78
2022/07/21 03:03:28;;;;;;;7.15;3.53;;;24.80;70.40;;;;;;5076058;28;20127;-78
2022/07/21 03:05:54;;;;;;;6.10;3.10;;;24.70;72.20;;;;;;5075954;28;20129;-78
2022/07/21 03:08:20;;;;;;;6.30;3.63;;;24.60;74.20;;;;;;5075598;28;20055;-78
2022/07/21 03:10:46;;;;;;;3.80;3.38;;;24.60;76.60;;;;;;5075434;28;20532;-78
2022/07/21 03:13:12;;;;;;;17.15;4.30;;;24.50;78.60;;;;;;5072305;28;20124;-78
2022/07/21 03:15:39;;;;;;;8.10;4.00;;;24.60;80.80;;;;;;5055476;28;20025;-78
2022/07/21 03:18:05;;;;;;;7.80;3.20;;;24.50;83.20;;;;;;5055865;28;20457;-78
2022/07/21 03:20:33;;;;;;;4.90;3.45;;;24.40;85.30;;;;;;5055660;28;20035;-78
2022/07/21 03:22:58;;;;;;;4.57;3.42;;;24.40;87.20;;;;;;5055827;28;20626;-78
2022/07/21 03:25:26;;;;;;;4.47;3.58;;;24.30;89.30;;;;;;5055330;28;20068;-78
2022/07/21 03:27:51;;;;;;;9.18;3.30;;;24.30;90.40;;;;;;5055107;28;20059;-78
2022/07/21 03:30:18;;;;;;;6.95;3.25;;;24.30;91.00;;;;;;5055867;28;20338;-78
2022/07/21 03:32:43;;;;;;;10.73;3.72;;;24.30;91.70;;;;;;5069226;28;20388;-78
2022/07/21 03:35:11;;;;;;;3.42;3.13;;;24.20;93.00;;;;;;5066503;28;20041;-78
2022/07/21 03:37:50;;;;;;;4.88;3.30;;;24.20;93.40;;;;;;5062711;28;20028;-78
2022/07/21 03:40:17;;;;;;;6.90;3.50;;;24.20;93.90;;;;;;5075083;28;20071;-78
2022/07/21 03:42:43;;;;;;;5.25;3.60;;;24.20;95.30;;;;;;5055495;28;20480;-78
2022/07/21 03:45:10;;;;;;;3.42;2.88;;;24.20;96.40;;;;;;5054172;28;20033;-78
2022/07/21 03:47:36;;;;;;;15.27;3.53;;;24.10;97.70;;;;;;5061879;28;20460;-78
2022/07/21 03:50:03;;;;;;;5.03;3.33;;;24.10;98.90;;;;;;5069212;28;20033;-78
2022/07/21 03:52:29;;;;;;;4.68;3.05;;;24.10;99.20;;;;;;5057177;28;20029;-78
2022/07/21 03:55:07;;;;;;;4.13;2.90;;;24.10;99.90;;;;;;5069080;28;20384;-78
2022/07/21 03:57:46;;;;;;;4.60;3.35;;;24.00;99.90;;;;;;5069864;28;20021;-78
2022/07/21 04:00:14;;;;;;;3.67;3.22;;;24.00;99.90;;;;;;5058363;28;20040;-78
2022/07/21 04:02:44;;;;;;;3.83;3.20;;;24.00;99.90;;;;;;5069542;28;20036;-78
2022/07/21 04:05:11;;;;;;;7.85;3.50;;;24.00;99.90;;;;;;5068510;28;20086;-78
2022/07/21 04:07:39;;;;;;;4.43;3.50;;;24.00;99.90;;;;;;5066842;28;20024;-78
2022/07/21 04:10:05;;;;;;;4.47;3.13;;;24.00;99.90;;;;;;5073383;28;20031;-78
2022/07/21 04:12:32;;;;;;;4.35;3.13;;;24.00;99.90;;;;;;5066043;28;20044;-78
2022/07/21 04:14:57;;;;;;;4.57;2.88;;;24.00;99.90;;;;;;5062950;28;20025;-78
2022/07/21 04:17:23;;;;;;;3.58;3.22;;;24.00;99.90;;;;;;5067147;28;20017;-78
2022/07/21 04:19:49;;;;;;;7.38;4.07;;;24.00;99.90;;;;;;5057908;28;20048;-78
2022/07/21 04:22:15;;;;;;;5.45;4.10;;;24.00;99.90;;;;;;5060140;28;20478;-79
2022/07/21 04:24:41;;;;;;;7.05;3.72;;;23.90;99.90;;;;;;5068614;28;20114;-79
2022/07/21 04:27:06;;;;;;;5.43;4.03;;;23.80;99.90;;;;;;5064462;28;20578;-78
2022/07/21 04:29:32;;;;;;;5.85;3.00;;;23.60;99.90;;;;;;5057908;28;20107;-78
2022/07/21 04:31:58;;;;;;;5.65;3.97;;;23.50;99.90;;;;;;5059835;28;20028;-79
2022/07/21 04:34:24;;;;;;;4.40;3.30;;;23.50;99.90;;;;;;5054352;28;20546;-78
2022/07/21 04:36:49;;;;;;;7.70;3.65;;;23.30;99.90;;;;;;5065601;28;20111;-79
2022/07/21 04:39:15;;;;;;;9.02;3.35;;;23.20;99.90;;;;;;5063079;28;20029;-79
2022/07/21 04:41:41;;;;;;;7.75;3.28;;;23.10;99.90;;;;;;5058335;28;20055;-79
2022/07/21 04:44:07;;;;;;;5.05;2.95;;;23.00;99.90;;;;;;5058006;28;20024;-79
2022/07/21 04:46:32;;;;;;;5.95;3.25;;;23.00;99.90;;;;;;5067877;28;20036;-78
2022/07/21 04:48:58;;;;;;;8.68;3.17;;;23.00;99.90;;;;;;5070314;28;20507;-79
2022/07/21 04:51:24;;;;;;;3.10;2.80;;;22.90;99.90;;;;;;5055147;28;20079;-79
2022/07/21 04:53:50;;;;;;;6.05;3.58;;;22.90;99.90;;;;;;5066294;28;20053;-79
2022/07/21 04:56:15;;;;;;;6.85;3.20;;;23.00;99.90;;;;;;5059452;28;20110;-79
2022/07/21 04:58:41;;;;;;;3.03;2.72;;;23.00;99.90;;;;;;5053499;28;20028;-80
2022/07/21 05:01:07;;;;;;;7.32;3.58;;;22.90;99.90;;;;;;5053907;28;20036;-80
2022/07/21 05:03:33;;;;;;;9.80;3.50;;;22.90;99.90;;;;;;5053599;28;20040;-81
2022/07/21 05:06:03;;;;;;;5.32;3.17;;;22.80;99.90;;;;;;5053821;28;20048;-80
2022/07/21 05:08:29;;;;;;;7.88;3.67;;;22.60;99.90;;;;;;5053475;28;20507;-80
2022/07/21 05:10:54;;;;;;;9.27;3.90;;;22.50;99.90;;;;;;5053510;28;20029;-80
2022/07/21 05:13:20;;;;;;;3.92;3.53;;;22.40;99.90;;;;;;5053376;28;20079;-80
2022/07/21 05:15:49;;;;;;;6.45;3.78;;;22.20;99.90;;;;;;5052285;28;20029;-80
2022/07/21 05:18:15;;;;;;;7.72;3.90;;;22.20;99.90;;;;;;5052474;28;20028;-80
2022/07/21 05:20:42;;;;;;;6.28;3.40;;;22.20;99.90;;;;;;5069187;28;20047;-80
2022/07/21 05:23:08;;;;;;;4.00;3.25;;;22.10;99.90;;;;;;5066006;28;20455;-80
2022/07/21 05:25:35;;;;;;;7.90;4.00;;;22.00;99.90;;;;;;5063581;28;20031;-80
2022/07/21 05:28:01;;;;;;;7.80;3.75;;;22.00;99.90;;;;;;5053580;28;20032;-80
2022/07/21 05:30:27;;;;;;;9.60;3.00;;;21.90;99.90;;;;;;5069264;28;20801;-80
2022/07/21 05:32:52;;;;;;;5.30;3.65;;;21.90;99.90;;;;;;5072690;28;20046;-79
2022/07/21 05:35:18;;;;;;;6.63;4.00;;;21.90;99.90;;;;;;5058735;28;20016;-79
2022/07/21 05:37:45;;;;;;;4.05;3.33;;;21.90;99.90;;;;;;5066499;28;20060;-79
2022/07/21 05:40:12;;;;;;;6.70;3.30;;;21.90;99.90;;;;;;5071653;28;20120;-79
2022/07/21 05:42:39;;;;;;;6.55;3.75;;;21.90;99.90;;;;;;5071539;28;20036;-79
2022/07/21 05:45:08;;;;;;;7.93;3.83;;;21.80;99.90;;;;;;5071987;28;20111;-79
2022/07/21 05:47:34;;;;;;;6.40;3.78;;;21.70;99.90;;;;;;5072970;28;20028;-79
2022/07/21 05:50:00;;;;;;;6.93;3.80;;;21.60;99.90;;;;;;5071051;28;20033;-79
2022/07/21 05:52:26;;;;;;;7.60;3.70;;;21.60;99.90;;;;;;5065296;28;20029;-78
2022/07/21 05:54:53;;;;;;;10.18;3.75;;;21.50;99.90;;;;;;5059273;28;20029;-79
2022/07/21 05:57:18;;;;;;;7.38;3.78;;;21.40;99.90;;;;;;5072693;28;20095;-78
2022/07/21 05:59:45;;;;;;;10.38;4.15;;;21.40;99.90;;;;;;5062860;28;20163;-79
2022/07/21 06:02:11;;;;;;;9.20;3.85;;;21.40;99.90;;;;;;5052542;28;20025;-79
2022/07/21 06:04:36;;;;;;;8.10;3.42;;;21.50;99.90;;;;;;5057618;28;20032;-78
2022/07/21 06:07:02;;;;;;;5.47;3.25;;;21.60;99.90;;;;;;5071029;28;20058;-79
2022/07/21 06:09:28;;;;;;;9.25;3.67;;;21.70;99.90;;;;;;5068725;28;20112;-78
2022/07/21 06:11:54;;;;;;;4.03;3.17;;;21.80;99.90;;;;;;5064155;28;20507;-79
2022/07/21 06:14:20;;;;;;;7.75;3.70;;;21.90;99.90;;;;;;5052512;28;20036;-78
2022/07/21 06:16:46;;;;;;;7.22;4.00;;;22.00;99.90;;;;;;5051657;28;20528;-79
2022/07/21 06:19:11;;;;;;;3.65;3.08;;;22.10;99.90;;;;;;5052748;28;20021;-79
2022/07/21 06:21:37;;;;;;;5.40;3.50;;;22.20;99.90;;;;;;5051901;28;20044;-78
2022/07/21 06:24:03;;;;;;;8.18;3.17;;;22.30;99.90;;;;;;5051740;28;20366;-79
2022/07/21 06:26:28;;;;;;;3.40;3.10;;;22.40;99.90;;;;;;5054153;28;20024;-79
2022/07/21 06:28:54;;;;;;;4.20;3.17;;;22.40;99.90;;;;;;5052288;28;20083;-79
2022/07/21 06:31:22;;;;;;;3.33;2.95;;;22.40;99.90;;;;;;5051995;28;20419;-79
2022/07/21 06:33:47;;;;;;;4.85;3.47;;;22.40;99.90;;;;;;5052301;28;20446;-78
2022/07/21 06:36:13;;;;;;;4.88;3.85;;;22.40;99.90;;;;;;5058143;28;20020;-79
2022/07/21 06:38:39;;;;;;;8.65;3.70;;;22.50;99.90;;;;;;5055679;28;20033;-79
2022/07/21 06:41:04;;;;;;;5.60;2.75;;;22.50;99.90;;;;;;5052887;28;20078;-78
2022/07/21 06:43:30;;;;;;;4.93;3.22;;;22.50;99.90;;;;;;5068511;28;20028;-79
2022/07/21 06:45:57;;;;;;;5.93;3.22;;;22.60;99.90;;;;;;5063304;28;20033;-79
2022/07/21 06:48:24;;;;;;;5.30;3.30;;;22.60;99.90;;;;;;5052190;28;20025;-79
2022/07/21 06:50:50;;;;;;;6.70;3.78;;;22.70;99.90;;;;;;5059392;28;20029;-79
2022/07/21 06:53:17;;;;;;;4.15;3.42;;;22.70;99.90;;;;;;5060973;28;20017;-79
2022/07/21 06:55:42;;;;;;;6.60;3.95;;;22.80;99.90;;;;;;5068773;28;20037;-78
2022/07/21 06:58:13;;;;;;;9.38;4.40;;;22.80;99.90;;;;;;5071771;28;20021;-79
2022/07/21 07:00:39;;;;;;;7.55;3.83;;;22.80;99.90;;;;;;5055306;28;20040;-79
2022/07/21 07:03:05;;;;;;;5.28;3.67;;;22.90;99.90;;;;;;5053792;28;20370;-79
2022/07/21 07:05:31;;;;;;;7.68;3.63;;;22.90;99.90;;;;;;5064567;28;20115;-78
2022/07/21 07:07:56;;;;;;;4.65;3.28;;;22.90;99.90;;;;;;5069179;28;20719;-79
2022/07/21 07:10:23;;;;;;;5.60;3.47;;;22.90;99.90;;;;;;5069890;28;20115;-79
2022/07/21 07:12:48;;;;;;;5.15;3.40;;;22.90;99.90;;;;;;5071246;28;20052;-79
2022/07/21 07:15:14;;;;;;;4.20;2.75;;;22.90;99.90;;;;;;5062127;28;20492;-79
2022/07/21 07:17:41;;;;;;;5.60;3.85;;;23.00;99.90;;;;;;5059758;28;20083;-80
2022/07/21 07:20:08;;;;;;;6.18;3.85;;;23.00;99.90;;;;;;5056935;28;20065;-79
2022/07/21 07:22:34;;;;;;;10.07;3.63;;;23.10;99.90;;;;;;5062533;28;20032;-80
2022/07/21 07:24:59;;;;;;;4.07;3.67;;;23.20;99.90;;;;;;5073350;28;20848;-80
2022/07/21 07:27:25;;;;;;;4.72;3.63;;;23.10;99.90;;;;;;5073707;28;20063;-80
2022/07/21 07:29:51;;;;;;;8.80;4.35;;;23.10;99.90;;;;;;5075631;28;20401;-79
2022/07/21 07:32:22;;;;;;;8.02;4.28;;;23.10;99.90;;;;;;5066709;28;20025;-79
2022/07/21 07:34:48;;;;;;;4.70;3.75;;;23.10;99.90;;;;;;5057822;28;20473;-79
2022/07/21 07:37:14;;;;;;;4.93;4.28;;;23.20;99.90;;;;;;5056231;28;20051;-79
2022/07/21 07:39:40;;;;;;;7.55;5.03;;;23.30;99.90;;;;;;5055644;28;20359;-80
2022/07/21 07:42:06;;;;;;;7.95;4.97;;;23.30;99.90;;;;;;5055089;28;20017;-79
2022/07/21 07:44:32;;;;;;;6.10;4.28;;;23.40;99.90;;;;;;5055008;28;20104;-79
2022/07/21 07:47:03;;;;;;;4.55;4.10;;;23.50;99.90;;;;;;5055253;28;20119;-79
2022/07/21 07:49:29;;;;;;;6.63;4.43;;;23.60;99.90;;;;;;5053848;28;20021;-79
2022/07/21 07:51:56;;;;;;;7.95;4.85;;;23.70;99.90;;;;;;5055118;28;20562;-79
2022/07/21 07:54:21;;;;;;;8.75;4.78;;;23.80;99.90;;;;;;5053774;28;20025;-79
2022/07/21 07:56:47;;;;;;;6.72;5.10;;;23.80;99.90;;;;;;5054718;28;20485;-79
2022/07/21 07:59:13;;;;;;;6.80;3.97;;;23.80;99.90;;;;;;5055228;28;20025;-79
2022/07/21 08:01:39;;;;;;;4.88;4.28;;;23.80;99.90;;;;;;5054998;28;20477;-79
2022/07/21 08:04:05;;;;;;;8.32;4.85;;;23.90;99.90;;;;;;5053599;28;20108;-80
2022/07/21 08:06:32;;;;;;;5.93;4.10;;;23.90;99.90;;;;;;5054765;28;20423;-79
2022/07/21 08:08:58;;;;;;;9.63;4.43;;;24.00;99.90;;;;;;5053500;28;20025;-79
2022/07/21 08:11:23;;;;;;;6.93;4.75;;;24.10;99.90;;;;;;5053985;28;20051;-79
2022/07/21 08:13:49;;;;;;;7.15;4.15;;;24.10;99.90;;;;;;5053218;28;20468;-79
2022/07/21 08:16:15;;;;;;;7.00;4.57;;;24.20;99.90;;;;;;5054835;28;20021;-79
2022/07/21 08:18:41;;;;;;;6.85;4.20;;;24.20;99.90;;;;;;5054586;28;20432;-79
2022/07/21 08:21:06;;;;;;;9.70;4.32;;;24.30;99.90;;;;;;5056222;28;20033;-79
2022/07/21 08:23:32;;;;;;;8.90;5.15;;;24.40;99.90;;;;;;5054874;28;20090;-80
2022/07/21 08:25:58;;;;;;;9.52;5.00;;;24.30;99.90;;;;;;5059586;28;20024;-79
2022/07/21 08:28:23;;;;;;;11.50;5.50;;;24.30;99.90;;;;;;5063820;28;20032;-80
2022/07/21 08:30:49;;;;;;;8.35;5.38;;;24.20;99.90;;;;;;5054280;28;20408;-79
2022/07/21 08:33:14;;;;;;;10.18;5.22;;;24.10;99.90;;;;;;5056263;28;20025;-80
2022/07/21 08:35:40;;;;;;;9.60;5.25;;;24.00;99.90;;;;;;5055449;28;20380;-80
2022/07/21 08:38:08;;;;;;;8.38;5.45;;;24.00;99.90;;;;;;5066935;28;20063;-79
2022/07/21 08:40:41;;;;;;;9.23;6.20;;;24.00;99.90;;;;;;5063419;28;20393;-79
2022/07/21 08:43:08;;;;;;;10.48;5.95;;;24.00;99.90;;;;;;5052975;28;20021;-80
2022/07/21 08:45:35;;;;;;;8.68;5.53;;;24.00;99.90;;;;;;5066835;28;20369;-79
2022/07/21 08:48:01;;;;;;;6.85;5.75;;;24.00;99.90;;;;;;5074073;28;20032;-79
2022/07/21 08:50:31;;;;;;;10.68;6.05;;;24.00;99.90;;;;;;5071698;28;20068;-79
2022/07/21 08:52:56;;;;;;;8.82;5.65;;;24.00;99.90;;;;;;5055689;28;20064;-79
2022/07/21 08:55:22;;;;;;;9.68;5.95;;;24.00;99.90;;;;;;5056607;28;20433;-79
2022/07/21 08:57:48;;;;;;;9.55;6.22;;;24.10;99.90;;;;;;5056208;28;20078;-79
2022/07/21 09:00:14;;;;;;;10.93;6.00;;;24.10;99.90;;;;;;5069042;28;20025;-80
2022/07/21 09:02:39;;;;;;;8.95;6.50;;;24.20;99.90;;;;;;5054832;28;20025;-80
2022/07/21 09:05:08;;;;;;;8.20;6.10;;;24.40;99.90;;;;;;5073471;28;20457;-79
2022/07/21 09:07:49;;;;;;;10.70;7.35;;;24.50;99.90;;;;;;5073190;28;20028;-79
2022/07/21 09:10:20;;;;;;;10.73;6.40;;;24.60;99.90;;;;;;5073463;28;20086;-79
2022/07/21 09:12:57;;;;;;;11.23;7.03;;;24.70;99.90;;;;;;5054468;28;20049;-79
2022/07/21 09:15:24;;;;;;;9.18;6.75;;;24.70;99.90;;;;;;5053736;28;20028;-79
2022/07/21 09:18:08;;;;;;;10.43;7.25;;;24.80;99.90;;;;;;5070734;28;20039;-79
2022/07/21 09:20:35;;;;;;;13.10;6.97;;;24.90;99.90;;;;;;5073645;28;20017;-79
2022/07/21 09:23:07;;;;;;;8.00;6.95;;;25.00;99.90;;;;;;5071154;28;20036;-79
2022/07/21 09:25:42;;;;;;;10.88;7.07;;;25.10;99.90;;;;;;5067047;28;20492;-80
2022/07/21 09:28:25;;;;;;;11.48;6.93;;;25.20;99.90;;;;;;5065474;28;20086;-79
2022/07/21 09:31:03;;;;;;;12.35;7.05;;;25.30;99.90;;;;;;5065182;28;20120;-78
2022/07/21 09:33:32;;;;;;;7.38;6.25;;;25.50;99.90;;;;;;5069766;28;20029;-79
2022/07/21 09:36:09;;;;;;;15.32;7.57;;;25.60;99.90;;;;;;5073105;28;20020;-78
2022/07/21 09:38:41;;;;;;;9.63;6.32;;;25.60;99.90;;;;;;5064141;28;20433;-79
2022/07/21 09:41:16;;;;;;;9.98;7.28;;;25.60;99.90;;;;;;5063866;28;20025;-79
2022/07/21 09:43:45;;;;;;;8.43;6.20;;;25.60;99.90;;;;;;5067808;28;20020;-79
2022/07/21 09:46:16;;;;;;;9.45;7.07;;;25.70;99.90;;;;;;5055332;28;20047;-79
2022/07/21 09:48:44;;;;;;;11.07;6.75;;;25.90;99.90;;;;;;5070343;28;20488;-80
2022/07/21 09:51:24;;;;;;;10.60;7.18;;;25.90;99.90;;;;;;5052333;28;20064;-79
2022/07/21 09:54:02;;;;;;;9.60;6.65;;;25.80;99.90;;;;;;5060953;28;20017;-80
2022/07/21 09:56:34;;;;;;;10.10;7.25;;;25.80;99.90;;;;;;5068314;28;20071;-79
2022/07/21 09:59:01;;;;;;;8.80;6.95;;;25.70;99.90;;;;;;5051914;28;20074;-79
2022/07/21 10:01:28;;;;;;;9.40;6.70;;;25.70;99.90;;;;;;5053415;28;20442;-79
2022/07/21 10:03:56;;;;;;;7.32;5.97;;;25.70;99.90;;;;;;5066002;28;20052;-79
2022/07/21 10:06:32;;;;;;;12.50;6.93;;;25.70;99.90;;;;;;5053160;28;20419;-79
2022/07/21 10:09:00;;;;;;;13.32;7.07;;;25.70;99.90;;;;;;5062412;28;20087;-80
2022/07/21 10:11:27;;;;;;;10.00;7.55;;;25.50;99.90;;;;;;5058527;28;20044;-79
2022/07/21 10:13:53;;;;;;;8.65;6.43;;;25.30;99.90;;;;;;5062398;28;20032;-80
2022/07/21 10:16:19;;;;;;;11.27;7.82;;;25.10;99.90;;;;;;5075878;28;20031;-80
2022/07/21 10:19:01;;;;;;;11.27;7.13;;;24.80;99.90;;;;;;5055548;28;20089;-79
2022/07/21 10:21:40;;;;;;;12.55;7.32;;;24.50;99.90;;;;;;5064229;28;20056;-80
2022/07/21 10:24:09;;;;;;;11.30;7.90;;;24.40;99.90;;;;;;5061895;28;20033;-80
2022/07/21 10:26:34;;;;;;;7.80;7.00;;;24.30;99.90;;;;;;5052225;28;20021;-80
2022/07/21 10:29:00;;;;;;;10.30;7.35;;;24.40;99.90;;;;;;5062383;28;20553;-81
2022/07/21 10:31:29;;;;;;;9.80;6.85;;;24.50;99.90;;;;;;5068335;28;20039;-80
2022/07/21 10:34:02;;;;;;;8.25;6.43;;;24.70;99.90;;;;;;5070263;28;20029;-81
2022/07/21 10:36:28;;;;;;;9.88;6.80;;;24.90;99.90;;;;;;5070903;28;20021;-81
2022/07/21 10:39:08;;;;;;;11.65;5.50;;;25.10;99.90;;;;;;5072645;28;20479;-81
2022/07/21 10:41:40;;;;;;;9.50;5.25;;;25.30;99.90;;;;;;5068654;28;20468;-80
2022/07/21 10:44:27;;;;;;;7.15;5.40;;;25.20;99.90;;;;;;5051018;28;20044;-80
2022/07/21 10:47:03;;;;;;;6.13;4.78;;;25.10;99.90;;;;;;5064899;28;20028;-81
2022/07/21 10:49:43;;;;;;;5.35;4.85;;;25.10;99.90;;;;;;5069476;28;20074;-81
2022/07/21 10:52:38;;;;;;;6.63;4.80;;;25.20;99.90;;;;;;5063839;28;20021;-81
2022/07/21 10:55:09;;;;;;;7.38;4.70;;;25.30;99.90;;;;;;5065967;28;20038;-81
2022/07/21 10:57:46;;;;;;;4.97;4.43;;;25.50;99.90;;;;;;5096863;28;20031;-79
2022/07/21 11:00:21;;;;;;;11.20;5.03;;;25.50;99.90;;;;;;5080565;28;20025;-80
2022/07/21 11:02:50;;;;;;;7.20;4.85;;;25.60;99.90;;;;;;5055012;28;20020;-80
2022/07/21 11:05:16;;;;;;;7.43;4.70;;;25.70;99.90;;;;;;5061681;28;20465;-80
2022/07/21 11:08:13;;;;;;;8.35;4.90;;;25.70;99.90;;;;;;5075068;28;20020;-80
2022/07/21 11:10:48;;;;;;;7.00;4.63;;;25.80;99.90;;;;;;5074649;28;20032;-80
2022/07/21 11:13:15;;;;;;;7.68;4.82;;;25.90;99.90;;;;;;5068846;28;20115;-80
2022/07/21 11:15:53;;;;;;;9.68;4.28;;;26.10;99.90;;;;;;5059169;28;20021;-80
2022/07/21 11:18:30;;;;;;;4.80;4.10;;;26.20;99.90;;;;;;5059483;28;20514;-80
2022/07/21 11:21:09;;;;;;;6.13;4.20;;;26.40;99.90;;;;;;5055746;28;20029;-80
2022/07/21 11:23:51;;;;;;;4.55;3.85;;;26.60;99.90;;;;;;5057158;28;20044;-80
2022/07/21 11:26:22;;;;;;;6.57;4.22;;;26.60;99.90;;;;;;5074660;28;20043;-80
2022/07/21 11:29:04;;;;;;;5.40;3.53;;;26.50;99.90;;;;;;5070615;28;20028;-80
2022/07/21 11:31:30;;;;;;;4.50;3.85;;;26.50;99.90;;;;;;5059016;28;20473;-79
2022/07/21 11:33:55;;;;;;;4.22;3.53;;;26.40;99.90;;;;;;5059040;28;20033;-80
2022/07/21 11:36:29;;;;;;;4.38;3.53;;;26.30;99.90;;;;;;5070123;28;20024;-79
2022/07/21 11:39:00;;;;;;;6.55;4.40;;;26.20;99.90;;;;;;5066932;28;20021;-80
2022/07/21 11:41:26;;;;;;;6.65;3.92;;;26.20;99.90;;;;;;5056084;28;20036;-80
2022/07/21 11:43:52;;;;;;;8.48;3.42;;;26.40;99.90;;;;;;5059069;28;20034;-80
2022/07/21 11:46:17;;;;;;;5.57;3.78;;;26.50;99.90;;;;;;5056553;28;20032;-79
2022/07/21 11:48:44;;;;;;;10.15;3.83;;;26.70;99.90;;;;;;5057128;28;20515;-79
2022/07/21 11:51:09;;;;;;;3.92;3.30;;;26.60;99.90;;;;;;5062817;28;20025;-79
2022/07/21 11:53:35;;;;;;;5.55;3.60;;;26.60;99.90;;;;;;5071640;28;20025;-80
2022/07/21 11:56:16;;;;;;;5.32;3.90;;;26.70;99.90;;;;;;5054727;28;20481;-79
2022/07/21 11:58:43;;;;;;;8.55;3.72;;;26.80;98.40;;;;;;5055289;28;20377;-80
2022/07/21 12:01:10;;;;;;;9.68;3.85;;;26.80;96.30;;;;;;5061398;28;20029;-79
2022/07/21 12:03:48;;;;;;;4.72;3.20;;;26.90;96.50;;;;;;5071628;28;20036;-78
2022/07/21 12:06:14;;;;;;;4.28;3.22;;;27.00;92.10;;;;;;5054900;28;20040;-79
2022/07/21 12:08:41;;;;;;;13.50;3.13;;;27.10;93.40;;;;;;5056500;28;20388;-80
2022/07/21 12:11:08;;;;;;;4.85;3.65;;;27.20;91.40;;;;;;5072931;28;20021;-80
2022/07/21 12:13:54;;;;;;;4.50;3.13;;;27.30;86.40;;;;;;5095088;28;20020;-80
2022/07/21 12:16:20;;;;;;;3.17;2.80;;;27.40;83.70;;;;;;5095123;28;20018;-79
2022/07/21 12:18:45;;;;;;;4.97;2.88;;;27.50;80.70;;;;;;5095002;28;20020;-78
2022/07/21 12:21:11;;;;;;;5.07;3.25;;;27.40;78.90;;;;;;5094895;28;20106;-79
2022/07/21 12:23:36;;;;;;;4.07;3.00;;;27.30;79.50;;;;;;5094992;28;20471;-79
2022/07/21 12:26:03;;;;;;;7.45;3.58;;;27.20;83.20;;;;;;5094561;28;20032;-79
2022/07/21 12:28:46;;;;;;;6.28;3.00;;;27.20;78.80;;;;;;5094603;28;20103;-79
2022/07/21 12:31:23;;;;;;;4.63;3.05;;;27.10;82.30;;;;;;5094232;28;20111;-79
2022/07/21 12:33:56;;;;;;;3.47;2.92;;;27.20;83.10;;;;;;5094195;28;20020;-79
2022/07/21 12:36:21;;;;;;;4.03;3.25;;;27.40;84.20;;;;;;5094626;28;20038;-79
2022/07/21 12:38:49;;;;;;;4.30;2.72;;;27.50;78.40;;;;;;5094040;28;20035;-81
2022/07/21 12:41:25;;;;;;;6.47;3.10;;;27.60;77.50;;;;;;5094234;28;20059;-82
2022/07/21 12:43:58;;;;;;;4.30;3.25;;;27.70;74.90;;;;;;5083907;28;20041;-82
2022/07/21 12:46:44;;;;;;;5.45;3.10;;;27.70;73.40;;;;;;5066957;28;20036;-82
2022/07/21 12:49:10;;;;;;;7.68;3.15;;;27.50;74.80;;;;;;5056711;28;20036;-82